sensor_id;sensor_type;location;lat;lon;timestamp;temperature;humidity
11736;DHT22;5924;51.398;7.088;2023-10-09T00:00:32;12.90;99.90
11736;DHT22;5924;51.398;7.088;2023-10-09T00:03:04;12.90;99.90
11736;DHT22;5924;51.398;7.088;2023-10-09T00:05:30;13.00;99.90
11736;DHT22;5924;51.398;7.088;2023-10-09T00:08:16;13.00;99.90
11736;DHT22;5924;51.398;7.088;2023-10-09T00:10:57;13.00;99.90
11736;DHT22;5924;51.398;7.088;2023-10-09T00:13:43;13.00;99.90
11736;DHT22;5924;51.398;7.088;2023-10-09T00:16:17;13.10;99.90
11736;DHT22;5924;51.398;7.088;2023-10-09T00:18:47;13.10;99.90
11736;DHT22;5924;51.398;7.088;2023-10-09T00:21:17;13.10;99.90
11736;DHT22;5924;51.398;7.088;2023-10-09T00:23:46;13.20;99.90
11736;DHT22;5924;51.398;7.088;2023-10-09T00:26:21;13.20;99.90
11736;DHT22;5924;51.398;7.088;2023-10-09T00:28:47;13.30;99.90
11736;DHT22;5924;51.398;7.088;2023-10-09T00:31:19;13.20;99.90
11736;DHT22;5924;51.398;7.088;2023-10-09T00:33:59;13.40;99.90
11736;DHT22;5924;51.398;7.088;2023-10-09T00:36:33;13.50;99.90
11736;DHT22;5924;51.398;7.088;2023-10-09T00:39:15;13.50;99.90
11736;DHT22;5924;51.398;7.088;2023-10-09T00:41:47;13.50;99.90
11736;DHT22;5924;51.398;7.088;2023-10-09T00:44:13;13.50;99.90
11736;DHT22;5924;51.398;7.088;2023-10-09T00:46:39;13.50;99.90
11736;DHT22;5924;51.398;7.088;2023-10-09T00:49:08;13.50;99.90
11736;DHT22;5924;51.398;7.088;2023-10-09T00:51:40;13.50;99.90
11736;DHT22;5924;51.398;7.088;2023-10-09T00:54:21;13.50;99.90
11736;DHT22;5924;51.398;7.088;2023-10-09T00:56:52;13.60;99.90
11736;DHT22;5924;51.398;7.088;2023-10-09T00:59:23;13.60;99.90
11736;DHT22;5924;51.398;7.088;2023-10-09T01:01:50;13.60;99.90
11736;DHT22;5924;51.398;7.088;2023-10-09T01:04:24;13.70;99.90
11736;DHT22;5924;51.398;7.088;2023-10-09T01:06:52;13.70;99.90
11736;DHT22;5924;51.398;7.088;2023-10-09T01:09:34;13.70;99.90
11736;DHT22;5924;51.398;7.088;2023-10-09T01:12:10;13.60;99.90
11736;DHT22;5924;51.398;7.088;2023-10-09T01:14:46;13.60;99.90
11736;DHT22;5924;51.398;7.088;2023-10-09T01:17:21;13.70;99.90
11736;DHT22;5924;51.398;7.088;2023-10-09T01:20:01;13.70;99.90
11736;DHT22;5924;51.398;7.088;2023-10-09T01:22:30;13.70;99.90
11736;DHT22;5924;51.398;7.088;2023-10-09T01:24:55;13.60;99.90
11736;DHT22;5924;51.398;7.088;2023-10-09T01:27:21;13.70;99.90
11736;DHT22;5924;51.398;7.088;2023-10-09T01:29:49;13.70;99.90
11736;DHT22;5924;51.398;7.088;2023-10-09T01:32:17;13.60;99.90
11736;DHT22;5924;51.398;7.088;2023-10-09T01:34:44;13.60;99.90
11736;DHT22;5924;51.398;7.088;2023-10-09T01:37:20;13.70;99.90
11736;DHT22;5924;51.398;7.088;2023-10-09T01:39:58;13.70;99.90
11736;DHT22;5924;51.398;7.088;2023-10-09T01:42:26;13.60;99.90
11736;DHT22;5924;51.398;7.088;2023-10-09T01:45:13;13.60;99.90
11736;DHT22;5924;51.398;7.088;2023-10-09T01:47:42;13.60;99.90
11736;DHT22;5924;51.398;7.088;2023-10-09T01:50:17;13.60;99.90
11736;DHT22;5924;51.398;7.088;2023-10-09T01:53:03;13.50;99.90
11736;DHT22;5924;51.398;7.088;2023-10-09T01:55:31;13.50;99.90
11736;DHT22;5924;51.398;7.088;2023-10-09T01:58:06;13.40;99.90
11736;DHT22;5924;51.398;7.088;2023-10-09T02:00:50;13.40;99.90
11736;DHT22;5924;51.398;7.088;2023-10-09T02:03:28;13.40;99.90
11736;DHT22;5924;51.398;7.088;2023-10-09T02:05:55;13.40;99.90
11736;DHT22;5924;51.398;7.088;2023-10-09T02:08:28;13.30;99.90
11736;DHT22;5924;51.398;7.088;2023-10-09T02:10:55;13.30;99.90
11736;DHT22;5924;51.398;7.088;2023-10-09T02:13:22;13.30;99.90
11736;DHT22;5924;51.398;7.088;2023-10-09T02:15:56;13.30;99.90
11736;DHT22;5924;51.398;7.088;2023-10-09T02:18:40;13.30;99.90
11736;DHT22;5924;51.398;7.088;2023-10-09T02:21:17;13.40;99.90
11736;DHT22;5924;51.398;7.088;2023-10-09T02:23:54;13.40;99.90
11736;DHT22;5924;51.398;7.088;2023-10-09T02:26:22;13.40;99.90
11736;DHT22;5924;51.398;7.088;2023-10-09T02:28:58;13.40;99.90
11736;DHT22;5924;51.398;7.088;2023-10-09T02:31:41;13.40;99.90
11736;DHT22;5924;51.398;7.088;2023-10-09T02:34:10;13.40;99.90
11736;DHT22;5924;51.398;7.088;2023-10-09T02:36:39;13.40;99.90
11736;DHT22;5924;51.398;7.088;2023-10-09T02:39:08;13.50;99.90
11736;DHT22;5924;51.398;7.088;2023-10-09T02:41:49;13.60;99.90
11736;DHT22;5924;51.398;7.088;2023-10-09T02:44:15;13.70;99.90
11736;DHT22;5924;51.398;7.088;2023-10-09T02:46:42;13.70;99.90
11736;DHT22;5924;51.398;7.088;2023-10-09T02:49:10;13.70;99.90
11736;DHT22;5924;51.398;7.088;2023-10-09T02:51:41;12.80;99.90
11736;DHT22;5924;51.398;7.088;2023-10-09T02:54:08;13.80;99.90
11736;DHT22;5924;51.398;7.088;2023-10-09T02:56:50;13.80;99.90
11736;DHT22;5924;51.398;7.088;2023-10-09T02:59:31;13.80;99.90
11736;DHT22;5924;51.398;7.088;2023-10-09T03:01:57;13.90;99.90
11736;DHT22;5924;51.398;7.088;2023-10-09T03:04:26;13.90;99.90
11736;DHT22;5924;51.398;7.088;2023-10-09T03:06:59;14.00;99.90
11736;DHT22;5924;51.398;7.088;2023-10-09T03:09:26;12.00;99.90
11736;DHT22;5924;51.398;7.088;2023-10-09T03:11:54;14.10;99.90
11736;DHT22;5924;51.398;7.088;2023-10-09T03:14:21;14.10;99.90
11736;DHT22;5924;51.398;7.088;2023-10-09T03:16:47;13.40;99.90
11736;DHT22;5924;51.398;7.088;2023-10-09T03:19:16;14.20;99.90
11736;DHT22;5924;51.398;7.088;2023-10-09T03:21:42;14.30;99.90
11736;DHT22;5924;51.398;7.088;2023-10-09T03:24:08;14.30;99.90
11736;DHT22;5924;51.398;7.088;2023-10-09T03:26:34;14.40;99.90
11736;DHT22;5924;51.398;7.088;2023-10-09T03:29:00;14.30;99.90
11736;DHT22;5924;51.398;7.088;2023-10-09T03:31:35;14.30;99.90
11736;DHT22;5924;51.398;7.088;2023-10-09T03:34:02;14.30;99.90
11736;DHT22;5924;51.398;7.088;2023-10-09T03:36:28;14.30;99.90
11736;DHT22;5924;51.398;7.088;2023-10-09T03:38:56;14.40;99.90
11736;DHT22;5924;51.398;7.088;2023-10-09T03:41:24;14.40;99.90
11736;DHT22;5924;51.398;7.088;2023-10-09T03:43:52;14.40;99.90
11736;DHT22;5924;51.398;7.088;2023-10-09T03:46:20;14.40;99.90
11736;DHT22;5924;51.398;7.088;2023-10-09T03:48:49;14.50;99.90
11736;DHT22;5924;51.398;7.088;2023-10-09T03:51:17;14.50;99.90
11736;DHT22;5924;51.398;7.088;2023-10-09T03:53:49;14.50;99.90
11736;DHT22;5924;51.398;7.088;2023-10-09T03:56:16;14.60;99.90
11736;DHT22;5924;51.398;7.088;2023-10-09T03:58:50;14.60;99.90
11736;DHT22;5924;51.398;7.088;2023-10-09T04:01:20;14.60;99.90
11736;DHT22;5924;51.398;7.088;2023-10-09T04:03:52;14.70;99.90
11736;DHT22;5924;51.398;7.088;2023-10-09T04:06:24;14.70;99.90
11736;DHT22;5924;51.398;7.088;2023-10-09T04:09:00;14.70;99.90
11736;DHT22;5924;51.398;7.088;2023-10-09T04:11:39;14.70;99.90
11736;DHT22;5924;51.398;7.088;2023-10-09T04:14:08;14.60;99.90
11736;DHT22;5924;51.398;7.088;2023-10-09T04:16:39;14.60;99.90
11736;DHT22;5924;51.398;7.088;2023-10-09T04:19:17;14.50;99.90
11736;DHT22;5924;51.398;7.088;2023-10-09T04:21:48;14.50;99.90
11736;DHT22;5924;51.398;7.088;2023-10-09T04:24:14;14.50;99.90
11736;DHT22;5924;51.398;7.088;2023-10-09T04:26:41;14.50;99.90
11736;DHT22;5924;51.398;7.088;2023-10-09T04:29:11;14.50;99.90
11736;DHT22;5924;51.398;7.088;2023-10-09T04:31:45;14.70;99.90
11736;DHT22;5924;51.398;7.088;2023-10-09T04:34:19;14.60;99.90
11736;DHT22;5924;51.398;7.088;2023-10-09T04:36:51;14.70;99.90
11736;DHT22;5924;51.398;7.088;2023-10-09T04:39:22;14.80;99.90
11736;DHT22;5924;51.398;7.088;2023-10-09T04:41:57;14.80;99.90
11736;DHT22;5924;51.398;7.088;2023-10-09T04:44:42;14.80;99.90
11736;DHT22;5924;51.398;7.088;2023-10-09T04:47:30;14.80;99.90
11736;DHT22;5924;51.398;7.088;2023-10-09T04:50:14;14.80;99.90
11736;DHT22;5924;51.398;7.088;2023-10-09T04:52:42;14.80;99.90
11736;DHT22;5924;51.398;7.088;2023-10-09T04:55:08;14.80;99.90
11736;DHT22;5924;51.398;7.088;2023-10-09T04:57:38;14.90;99.90
11736;DHT22;5924;51.398;7.088;2023-10-09T05:02:59;14.90;99.90
11736;DHT22;5924;51.398;7.088;2023-10-09T05:05:30;14.90;99.90
11736;DHT22;5924;51.398;7.088;2023-10-09T05:08:15;14.90;99.90
11736;DHT22;5924;51.398;7.088;2023-10-09T05:10:57;14.90;99.90
11736;DHT22;5924;51.398;7.088;2023-10-09T05:13:33;14.90;99.90
11736;DHT22;5924;51.398;7.088;2023-10-09T05:18:32;14.90;99.90
11736;DHT22;5924;51.398;7.088;2023-10-09T05:21:04;14.90;99.90
11736;DHT22;5924;51.398;7.088;2023-10-09T05:23:41;14.90;99.90
11736;DHT22;5924;51.398;7.088;2023-10-09T05:26:17;14.90;99.90
11736;DHT22;5924;51.398;7.088;2023-10-09T05:29:03;14.90;99.90
11736;DHT22;5924;51.398;7.088;2023-10-09T05:31:49;14.90;99.90
11736;DHT22;5924;51.398;7.088;2023-10-09T05:34:23;14.90;99.90
11736;DHT22;5924;51.398;7.088;2023-10-09T05:36:49;15.00;99.90
11736;DHT22;5924;51.398;7.088;2023-10-09T05:39:15;15.90;99.90
11736;DHT22;5924;51.398;7.088;2023-10-09T05:41:47;15.00;99.90
11736;DHT22;5924;51.398;7.088;2023-10-09T05:44:18;15.00;99.90
11736;DHT22;5924;51.398;7.088;2023-10-09T05:47:03;14.90;99.90
11736;DHT22;5924;51.398;7.088;2023-10-09T05:49:52;14.90;99.90
11736;DHT22;5924;51.398;7.088;2023-10-09T05:52:23;14.90;99.90
11736;DHT22;5924;51.398;7.088;2023-10-09T05:54:58;14.90;99.90
11736;DHT22;5924;51.398;7.088;2023-10-09T05:57:43;14.90;99.90
11736;DHT22;5924;51.398;7.088;2023-10-09T06:00:27;14.90;99.90
11736;DHT22;5924;51.398;7.088;2023-10-09T06:03:11;14.90;99.90
11736;DHT22;5924;51.398;7.088;2023-10-09T06:05:47;14.90;99.90
11736;DHT22;5924;51.398;7.088;2023-10-09T06:08:32;14.90;99.90
11736;DHT22;5924;51.398;7.088;2023-10-09T06:11:07;14.90;99.90
11736;DHT22;5924;51.398;7.088;2023-10-09T06:13:56;15.00;99.90
11736;DHT22;5924;51.398;7.088;2023-10-09T06:16:28;15.10;99.90
11736;DHT22;5924;51.398;7.088;2023-10-09T06:19:13;15.10;99.90
11736;DHT22;5924;51.398;7.088;2023-10-09T06:21:45;15.20;99.90
11736;DHT22;5924;51.398;7.088;2023-10-09T06:24:30;15.20;99.90
11736;DHT22;5924;51.398;7.088;2023-10-09T06:26:59;15.20;99.90
11736;DHT22;5924;51.398;7.088;2023-10-09T06:29:25;15.20;99.90
11736;DHT22;5924;51.398;7.088;2023-10-09T06:32:10;15.20;99.90
11736;DHT22;5924;51.398;7.088;2023-10-09T06:34:53;15.20;99.90
11736;DHT22;5924;51.398;7.088;2023-10-09T06:37:23;15.20;99.90
11736;DHT22;5924;51.398;7.088;2023-10-09T06:39:53;15.30;99.90
11736;DHT22;5924;51.398;7.088;2023-10-09T06:42:26;15.30;99.90
11736;DHT22;5924;51.398;7.088;2023-10-09T06:45:12;15.30;99.90
11736;DHT22;5924;51.398;7.088;2023-10-09T06:47:49;15.30;99.90
11736;DHT22;5924;51.398;7.088;2023-10-09T06:50:21;15.40;99.90
11736;DHT22;5924;51.398;7.088;2023-10-09T06:52:53;15.40;99.90
11736;DHT22;5924;51.398;7.088;2023-10-09T06:55:40;15.40;99.90
11736;DHT22;5924;51.398;7.088;2023-10-09T06:58:26;15.40;99.90
11736;DHT22;5924;51.398;7.088;2023-10-09T07:00:55;15.50;99.90
11736;DHT22;5924;51.398;7.088;2023-10-09T07:03:32;15.50;99.90
11736;DHT22;5924;51.398;7.088;2023-10-09T07:06:07;15.50;99.90
11736;DHT22;5924;51.398;7.088;2023-10-09T07:08:56;15.60;99.90
11736;DHT22;5924;51.398;7.088;2023-10-09T07:11:35;15.60;99.90
11736;DHT22;5924;51.398;7.088;2023-10-09T07:14:13;15.70;99.90
11736;DHT22;5924;51.398;7.088;2023-10-09T07:17:04;15.70;99.90
11736;DHT22;5924;51.398;7.088;2023-10-09T07:19:42;15.80;99.90
11736;DHT22;5924;51.398;7.088;2023-10-09T07:22:12;15.90;99.90
11736;DHT22;5924;51.398;7.088;2023-10-09T07:24:46;15.90;99.90
11736;DHT22;5924;51.398;7.088;2023-10-09T07:30:12;15.90;99.90
11736;DHT22;5924;51.398;7.088;2023-10-09T07:32:56;15.90;99.90
11736;DHT22;5924;51.398;7.088;2023-10-09T07:35:47;15.90;99.90
11736;DHT22;5924;51.398;7.088;2023-10-09T07:38:18;16.00;99.90
11736;DHT22;5924;51.398;7.088;2023-10-09T07:40:45;16.00;99.90
11736;DHT22;5924;51.398;7.088;2023-10-09T07:43:38;16.10;99.90
11736;DHT22;5924;51.398;7.088;2023-10-09T07:46:12;16.20;99.90
11736;DHT22;5924;51.398;7.088;2023-10-09T07:48:59;16.30;99.90
11736;DHT22;5924;51.398;7.088;2023-10-09T07:51:37;16.40;99.90
11736;DHT22;5924;51.398;7.088;2023-10-09T07:54:03;16.50;99.90
11736;DHT22;5924;51.398;7.088;2023-10-09T07:56:39;16.70;99.90
11736;DHT22;5924;51.398;7.088;2023-10-09T07:59:14;16.80;99.90
11736;DHT22;5924;51.398;7.088;2023-10-09T08:01:48;16.80;99.90
11736;DHT22;5924;51.398;7.088;2023-10-09T08:04:40;16.80;99.90
11736;DHT22;5924;51.398;7.088;2023-10-09T08:07:15;16.70;99.90
11736;DHT22;5924;51.398;7.088;2023-10-09T08:10:07;16.60;99.90
11736;DHT22;5924;51.398;7.088;2023-10-09T08:12:39;16.60;99.90
11736;DHT22;5924;51.398;7.088;2023-10-09T08:15:06;16.60;99.90
11736;DHT22;5924;51.398;7.088;2023-10-09T08:17:54;16.60;99.90
11736;DHT22;5924;51.398;7.088;2023-10-09T08:20:26;16.70;99.90
11736;DHT22;5924;51.398;7.088;2023-10-09T08:22:55;16.80;99.90
11736;DHT22;5924;51.398;7.088;2023-10-09T08:25:22;16.90;99.90
11736;DHT22;5924;51.398;7.088;2023-10-09T08:28:10;17.00;99.90
11736;DHT22;5924;51.398;7.088;2023-10-09T08:31:14;17.00;99.90
11736;DHT22;5924;51.398;7.088;2023-10-09T08:34:02;17.10;99.90
11736;DHT22;5924;51.398;7.088;2023-10-09T08:36:29;17.20;99.90
11736;DHT22;5924;51.398;7.088;2023-10-09T08:39:05;17.20;99.90
11736;DHT22;5924;51.398;7.088;2023-10-09T08:41:42;17.30;99.90
11736;DHT22;5924;51.398;7.088;2023-10-09T08:44:12;17.30;99.90
11736;DHT22;5924;51.398;7.088;2023-10-09T08:46:40;17.30;99.90
11736;DHT22;5924;51.398;7.088;2023-10-09T08:49:08;17.20;99.90
11736;DHT22;5924;51.398;7.088;2023-10-09T08:51:36;17.10;99.90
11736;DHT22;5924;51.398;7.088;2023-10-09T08:54:03;17.00;99.90
11736;DHT22;5924;51.398;7.088;2023-10-09T08:56:30;16.90;99.90
11736;DHT22;5924;51.398;7.088;2023-10-09T08:58:57;16.90;99.90
11736;DHT22;5924;51.398;7.088;2023-10-09T09:01:25;17.00;99.90
11736;DHT22;5924;51.398;7.088;2023-10-09T09:03:52;17.00;99.90
11736;DHT22;5924;51.398;7.088;2023-10-09T09:06:21;17.10;99.90
11736;DHT22;5924;51.398;7.088;2023-10-09T09:08:49;17.20;99.90
11736;DHT22;5924;51.398;7.088;2023-10-09T09:11:17;17.30;99.90
11736;DHT22;5924;51.398;7.088;2023-10-09T09:14:04;17.40;99.90
11736;DHT22;5924;51.398;7.088;2023-10-09T09:16:32;17.50;99.90
11736;DHT22;5924;51.398;7.088;2023-10-09T09:19:05;17.60;99.90
11736;DHT22;5924;51.398;7.088;2023-10-09T09:21:36;17.80;99.90
11736;DHT22;5924;51.398;7.088;2023-10-09T09:24:11;17.90;99.90
11736;DHT22;5924;51.398;7.088;2023-10-09T09:26:50;18.20;99.90
11736;DHT22;5924;51.398;7.088;2023-10-09T09:32:07;18.50;99.90
11736;DHT22;5924;51.398;7.088;2023-10-09T09:35:03;18.70;99.90
11736;DHT22;5924;51.398;7.088;2023-10-09T09:37:33;18.90;99.90
11736;DHT22;5924;51.398;7.088;2023-10-09T09:40:05;19.00;99.90
11736;DHT22;5924;51.398;7.088;2023-10-09T09:42:50;19.10;99.90
11736;DHT22;5924;51.398;7.088;2023-10-09T09:45:17;19.10;99.90
11736;DHT22;5924;51.398;7.088;2023-10-09T09:47:49;19.10;99.90
11736;DHT22;5924;51.398;7.088;2023-10-09T09:50:20;19.10;99.90
11736;DHT22;5924;51.398;7.088;2023-10-09T09:52:51;19.00;99.90
11736;DHT22;5924;51.398;7.088;2023-10-09T09:55:25;19.00;99.90
11736;DHT22;5924;51.398;7.088;2023-10-09T09:57:57;19.00;99.90
11736;DHT22;5924;51.398;7.088;2023-10-09T10:00:25;19.10;99.90
11736;DHT22;5924;51.398;7.088;2023-10-09T10:03:03;19.30;99.90
11736;DHT22;5924;51.398;7.088;2023-10-09T10:05:32;19.40;99.90
11736;DHT22;5924;51.398;7.088;2023-10-09T10:07:59;19.50;99.90
11736;DHT22;5924;51.398;7.088;2023-10-09T10:10:38;19.40;99.90
11736;DHT22;5924;51.398;7.088;2023-10-09T10:13:13;19.50;99.90
11736;DHT22;5924;51.398;7.088;2023-10-09T10:16:06;19.50;99.90
11736;DHT22;5924;51.398;7.088;2023-10-09T10:18:57;19.60;99.90
11736;DHT22;5924;51.398;7.088;2023-10-09T10:21:35;19.60;99.90
11736;DHT22;5924;51.398;7.088;2023-10-09T10:29:43;19.50;99.90
11736;DHT22;5924;51.398;7.088;2023-10-09T10:32:12;19.60;99.90
11736;DHT22;5924;51.398;7.088;2023-10-09T10:37:21;19.60;99.90
11736;DHT22;5924;51.398;7.088;2023-10-09T10:39:54;19.70;99.90
11736;DHT22;5924;51.398;7.088;2023-10-09T10:42:25;19.70;99.90
11736;DHT22;5924;51.398;7.088;2023-10-09T10:45:03;19.70;99.90
11736;DHT22;5924;51.398;7.088;2023-10-09T10:47:49;19.80;99.90
11736;DHT22;5924;51.398;7.088;2023-10-09T10:50:17;19.70;99.90
11736;DHT22;5924;51.398;7.088;2023-10-09T10:53:28;19.70;99.90
11736;DHT22;5924;51.398;7.088;2023-10-09T10:56:03;19.70;99.90
11736;DHT22;5924;51.398;7.088;2023-10-09T10:58:38;19.70;99.90
11736;DHT22;5924;51.398;7.088;2023-10-09T11:01:03;19.60;99.90
11736;DHT22;5924;51.398;7.088;2023-10-09T11:03:39;19.60;99.90
11736;DHT22;5924;51.398;7.088;2023-10-09T11:06:28;19.50;99.90
11736;DHT22;5924;51.398;7.088;2023-10-09T11:09:05;19.60;99.90
11736;DHT22;5924;51.398;7.088;2023-10-09T11:11:52;19.70;99.90
11736;DHT22;5924;51.398;7.088;2023-10-09T11:14:45;19.80;99.90
11736;DHT22;5924;51.398;7.088;2023-10-09T11:17:16;19.90;99.90
11736;DHT22;5924;51.398;7.088;2023-10-09T11:19:51;20.00;99.90
11736;DHT22;5924;51.398;7.088;2023-10-09T11:22:18;20.10;99.90
11736;DHT22;5924;51.398;7.088;2023-10-09T11:25:01;20.00;99.90
11736;DHT22;5924;51.398;7.088;2023-10-09T11:27:37;19.90;99.90
11736;DHT22;5924;51.398;7.088;2023-10-09T11:30:05;19.90;99.90
11736;DHT22;5924;51.398;7.088;2023-10-09T11:32:39;19.90;99.90
11736;DHT22;5924;51.398;7.088;2023-10-09T11:35:15;20.00;99.90
11736;DHT22;5924;51.398;7.088;2023-10-09T11:37:55;20.00;99.90
11736;DHT22;5924;51.398;7.088;2023-10-09T11:40:31;20.00;99.90
11736;DHT22;5924;51.398;7.088;2023-10-09T11:43:16;19.90;99.90
11736;DHT22;5924;51.398;7.088;2023-10-09T11:45:41;19.90;99.90
11736;DHT22;5924;51.398;7.088;2023-10-09T11:48:20;19.90;99.90
11736;DHT22;5924;51.398;7.088;2023-10-09T11:51:13;19.90;99.90
11736;DHT22;5924;51.398;7.088;2023-10-09T11:53:44;20.00;99.90
11736;DHT22;5924;51.398;7.088;2023-10-09T11:56:21;20.00;99.90
11736;DHT22;5924;51.398;7.088;2023-10-09T11:58:48;20.10;99.90
11736;DHT22;5924;51.398;7.088;2023-10-09T12:01:17;20.20;99.90
11736;DHT22;5924;51.398;7.088;2023-10-09T12:03:46;20.30;99.90
11736;DHT22;5924;51.398;7.088;2023-10-09T12:06:20;20.30;99.90
11736;DHT22;5924;51.398;7.088;2023-10-09T12:08:48;20.20;99.90
11736;DHT22;5924;51.398;7.088;2023-10-09T12:11:14;20.30;99.90
11736;DHT22;5924;51.398;7.088;2023-10-09T12:13:50;20.40;99.90
11736;DHT22;5924;51.398;7.088;2023-10-09T12:16:24;20.50;99.90
11736;DHT22;5924;51.398;7.088;2023-10-09T12:18:54;20.50;99.90
11736;DHT22;5924;51.398;7.088;2023-10-09T12:21:20;20.50;99.90
11736;DHT22;5924;51.398;7.088;2023-10-09T12:23:46;20.60;99.90
11736;DHT22;5924;51.398;7.088;2023-10-09T12:26:13;20.70;99.90
11736;DHT22;5924;51.398;7.088;2023-10-09T12:28:42;20.80;99.90
11736;DHT22;5924;51.398;7.088;2023-10-09T12:31:16;20.80;99.90
11736;DHT22;5924;51.398;7.088;2023-10-09T12:33:45;20.90;99.90
11736;DHT22;5924;51.398;7.088;2023-10-09T12:36:15;21.00;99.90
11736;DHT22;5924;51.398;7.088;2023-10-09T12:38:46;22.10;99.90
11736;DHT22;5924;51.398;7.088;2023-10-09T12:41:18;21.00;99.90
11736;DHT22;5924;51.398;7.088;2023-10-09T12:43:55;21.00;99.90
11736;DHT22;5924;51.398;7.088;2023-10-09T12:46:22;21.10;99.90
11736;DHT22;5924;51.398;7.088;2023-10-09T12:48:49;21.10;99.90
11736;DHT22;5924;51.398;7.088;2023-10-09T12:51:15;21.00;99.90
11736;DHT22;5924;51.398;7.088;2023-10-09T12:53:46;21.00;99.90
11736;DHT22;5924;51.398;7.088;2023-10-09T12:56:14;20.80;99.90
11736;DHT22;5924;51.398;7.088;2023-10-09T12:58:43;20.90;99.90
11736;DHT22;5924;51.398;7.088;2023-10-09T13:01:18;20.80;99.90
11736;DHT22;5924;51.398;7.088;2023-10-09T13:03:46;20.80;99.90
11736;DHT22;5924;51.398;7.088;2023-10-09T13:06:15;20.80;99.90
11736;DHT22;5924;51.398;7.088;2023-10-09T13:08:41;20.80;99.90
11736;DHT22;5924;51.398;7.088;2023-10-09T13:11:11;20.80;99.90
11736;DHT22;5924;51.398;7.088;2023-10-09T13:13:41;20.70;99.90
11736;DHT22;5924;51.398;7.088;2023-10-09T13:18:41;20.70;99.90
11736;DHT22;5924;51.398;7.088;2023-10-09T13:21:07;20.70;99.90
11736;DHT22;5924;51.398;7.088;2023-10-09T13:23:33;20.70;99.90
11736;DHT22;5924;51.398;7.088;2023-10-09T13:26:06;20.80;99.90
11736;DHT22;5924;51.398;7.088;2023-10-09T13:28:53;22.40;99.90
11736;DHT22;5924;51.398;7.088;2023-10-09T13:31:20;20.90;99.90
11736;DHT22;5924;51.398;7.088;2023-10-09T13:33:56;21.00;99.90
11736;DHT22;5924;51.398;7.088;2023-10-09T13:36:25;21.10;99.90
11736;DHT22;5924;51.398;7.088;2023-10-09T13:39:02;21.40;99.90
11736;DHT22;5924;51.398;7.088;2023-10-09T13:41:46;21.70;99.90
11736;DHT22;5924;51.398;7.088;2023-10-09T13:44:15;21.90;99.90
11736;DHT22;5924;51.398;7.088;2023-10-09T13:46:41;21.90;99.90
11736;DHT22;5924;51.398;7.088;2023-10-09T13:49:11;21.80;99.90
11736;DHT22;5924;51.398;7.088;2023-10-09T13:51:43;21.60;99.90
11736;DHT22;5924;51.398;7.088;2023-10-09T13:54:12;21.50;99.90
11736;DHT22;5924;51.398;7.088;2023-10-09T13:56:54;21.30;99.90
11736;DHT22;5924;51.398;7.088;2023-10-09T13:59:23;21.20;99.90
11736;DHT22;5924;51.398;7.088;2023-10-09T14:01:51;21.10;99.90
11736;DHT22;5924;51.398;7.088;2023-10-09T14:04:23;20.80;99.90
11736;DHT22;5924;51.398;7.088;2023-10-09T14:06:52;20.60;99.90
11736;DHT22;5924;51.398;7.088;2023-10-09T14:09:25;20.50;99.90
11736;DHT22;5924;51.398;7.088;2023-10-09T14:11:58;20.30;99.90
11736;DHT22;5924;51.398;7.088;2023-10-09T14:17:05;20.10;99.90
11736;DHT22;5924;51.398;7.088;2023-10-09T14:19:38;20.00;99.90
11736;DHT22;5924;51.398;7.088;2023-10-09T14:22:04;20.00;99.90
11736;DHT22;5924;51.398;7.088;2023-10-09T14:24:31;20.00;99.90
11736;DHT22;5924;51.398;7.088;2023-10-09T14:26:59;19.90;99.90
11736;DHT22;5924;51.398;7.088;2023-10-09T14:29:28;19.80;99.90
11736;DHT22;5924;51.398;7.088;2023-10-09T14:31:56;20.00;99.90
11736;DHT22;5924;51.398;7.088;2023-10-09T14:34:28;19.70;99.90
11736;DHT22;5924;51.398;7.088;2023-10-09T14:36:58;19.60;99.90
11736;DHT22;5924;51.398;7.088;2023-10-09T14:39:26;19.50;99.90
11736;DHT22;5924;51.398;7.088;2023-10-09T14:41:52;19.50;99.90
11736;DHT22;5924;51.398;7.088;2023-10-09T14:44:20;19.50;99.90
11736;DHT22;5924;51.398;7.088;2023-10-09T14:46:46;19.50;99.90
11736;DHT22;5924;51.398;7.088;2023-10-09T14:49:12;19.50;99.90
11736;DHT22;5924;51.398;7.088;2023-10-09T14:51:40;19.50;99.90
11736;DHT22;5924;51.398;7.088;2023-10-09T14:54:06;19.50;99.90
11736;DHT22;5924;51.398;7.088;2023-10-09T14:56:33;19.50;99.90
11736;DHT22;5924;51.398;7.088;2023-10-09T14:59:02;19.50;99.90
11736;DHT22;5924;51.398;7.088;2023-10-09T15:01:29;19.60;99.90
11736;DHT22;5924;51.398;7.088;2023-10-09T15:03:57;19.60;99.90
11736;DHT22;5924;51.398;7.088;2023-10-09T15:06:27;19.50;99.90
11736;DHT22;5924;51.398;7.088;2023-10-09T15:08:54;19.50;99.90
11736;DHT22;5924;51.398;7.088;2023-10-09T15:11:25;19.50;99.90
11736;DHT22;5924;51.398;7.088;2023-10-09T15:13:52;19.50;99.90
11736;DHT22;5924;51.398;7.088;2023-10-09T15:16:18;19.50;99.90
11736;DHT22;5924;51.398;7.088;2023-10-09T15:18:47;19.50;99.90
11736;DHT22;5924;51.398;7.088;2023-10-09T15:21:18;19.50;99.90
11736;DHT22;5924;51.398;7.088;2023-10-09T15:23:46;19.50;99.90
11736;DHT22;5924;51.398;7.088;2023-10-09T15:26:14;19.50;99.90
11736;DHT22;5924;51.398;7.088;2023-10-09T15:28:42;19.40;99.90
11736;DHT22;5924;51.398;7.088;2023-10-09T15:31:08;19.40;99.90
11736;DHT22;5924;51.398;7.088;2023-10-09T15:33:37;19.30;99.90
11736;DHT22;5924;51.398;7.088;2023-10-09T15:36:16;19.30;99.90
11736;DHT22;5924;51.398;7.088;2023-10-09T15:38:50;19.30;99.90
11736;DHT22;5924;51.398;7.088;2023-10-09T15:41:16;19.20;99.90
11736;DHT22;5924;51.398;7.088;2023-10-09T15:43:43;19.20;99.90
11736;DHT22;5924;51.398;7.088;2023-10-09T15:46:12;19.20;99.90
11736;DHT22;5924;51.398;7.088;2023-10-09T15:48:42;19.10;99.90
11736;DHT22;5924;51.398;7.088;2023-10-09T15:51:12;19.10;99.90
11736;DHT22;5924;51.398;7.088;2023-10-09T15:53:43;19.00;99.90
11736;DHT22;5924;51.398;7.088;2023-10-09T15:56:12;18.90;99.90
11736;DHT22;5924;51.398;7.088;2023-10-09T15:58:41;18.90;99.90
11736;DHT22;5924;51.398;7.088;2023-10-09T16:01:13;18.90;99.90
11736;DHT22;5924;51.398;7.088;2023-10-09T16:03:46;18.90;99.90
11736;DHT22;5924;51.398;7.088;2023-10-09T16:06:16;18.90;99.90
11736;DHT22;5924;51.398;7.088;2023-10-09T16:08:43;18.90;99.90
11736;DHT22;5924;51.398;7.088;2023-10-09T16:11:19;18.90;99.90
11736;DHT22;5924;51.398;7.088;2023-10-09T16:13:46;18.90;99.90
11736;DHT22;5924;51.398;7.088;2023-10-09T16:16:12;18.90;99.90
11736;DHT22;5924;51.398;7.088;2023-10-09T16:18:39;18.90;99.90
11736;DHT22;5924;51.398;7.088;2023-10-09T16:21:07;18.80;99.90
11736;DHT22;5924;51.398;7.088;2023-10-09T16:23:37;18.80;99.90
11736;DHT22;5924;51.398;7.088;2023-10-09T16:26:03;18.70;99.90
11736;DHT22;5924;51.398;7.088;2023-10-09T16:28:33;18.70;99.90
11736;DHT22;5924;51.398;7.088;2023-10-09T16:30:58;18.60;99.90
11736;DHT22;5924;51.398;7.088;2023-10-09T16:33:25;18.50;99.90
11736;DHT22;5924;51.398;7.088;2023-10-09T16:35:52;18.50;99.90
11736;DHT22;5924;51.398;7.088;2023-10-09T16:38:20;18.40;99.90
11736;DHT22;5924;51.398;7.088;2023-10-09T16:40:55;18.40;99.90
11736;DHT22;5924;51.398;7.088;2023-10-09T16:43:24;18.30;99.90
11736;DHT22;5924;51.398;7.088;2023-10-09T16:45:53;18.30;99.90